createdAt,value
2018-07-22T00:01:34.158Z,19.71
2018-07-22T00:04:03.084Z,19.66
2018-07-22T00:06:31.991Z,19.68
2018-07-22T00:09:00.901Z,19.68
2018-07-22T00:11:30.125Z,19.58
2018-07-22T00:13:59.054Z,19.53
2018-07-22T00:16:27.993Z,19.55
2018-07-22T00:18:56.918Z,19.45
2018-07-22T00:21:25.807Z,19.38
2018-07-22T00:23:54.798Z,19.39
2018-07-22T00:26:23.719Z,19.37
2018-07-22T00:28:53.337Z,19.27
2018-07-22T00:31:22.255Z,19.26
2018-07-22T00:33:51.167Z,19.21
2018-07-22T00:36:20.200Z,19.11
2018-07-22T00:38:49.116Z,19.13
2018-07-22T00:41:18.014Z,19.02
2018-07-22T00:43:47.009Z,18.96
2018-07-22T00:46:15.907Z,18.97
2018-07-22T00:48:45.013Z,18.95
2018-07-22T00:51:13.952Z,18.98
2018-07-22T00:53:42.865Z,18.93
2018-07-22T00:56:21.445Z,18.89
2018-07-22T00:58:50.347Z,18.95
2018-07-22T01:01:20.022Z,18.94
2018-07-22T01:03:49.321Z,18.99
2018-07-22T01:06:18.236Z,18.94
2018-07-22T01:08:47.137Z,18.98
2018-07-22T01:11:16.261Z,18.97
2018-07-22T01:13:45.239Z,18.95
2018-07-22T01:16:14.149Z,18.96
2018-07-22T01:18:43.035Z,19.07
2018-07-22T01:21:11.951Z,19.14
2018-07-22T01:23:40.887Z,19.21
2018-07-22T01:26:09.972Z,19.20
2018-07-22T01:28:38.948Z,19.22
2018-07-22T01:31:08.056Z,19.29
2018-07-22T01:33:36.968Z,19.31
2018-07-22T01:36:05.935Z,19.22
2018-07-22T01:38:34.843Z,19.17
2018-07-22T01:41:03.765Z,19.17
2018-07-22T01:43:32.757Z,19.16
2018-07-22T01:46:01.689Z,19.13
2018-07-22T01:48:30.644Z,19.13
2018-07-22T01:50:59.557Z,19.16
2018-07-22T01:53:28.581Z,19.20
2018-07-22T01:55:57.489Z,19.20
2018-07-22T01:58:26.384Z,19.14
2018-07-22T02:00:55.284Z,19.12
2018-07-22T02:03:24.218Z,18.99
2018-07-22T02:05:53.113Z,19.00
2018-07-22T02:08:22.061Z,18.91
2018-07-22T02:10:51.376Z,18.94
2018-07-22T02:13:20.369Z,18.90
2018-07-22T02:15:49.276Z,18.89
2018-07-22T02:18:18.216Z,18.82
2018-07-22T02:20:47.206Z,18.86
2018-07-22T02:23:16.505Z,18.87
2018-07-22T02:25:45.416Z,18.89
2018-07-22T02:28:14.329Z,18.81
2018-07-22T02:30:43.308Z,18.82
2018-07-22T02:33:12.256Z,18.69
2018-07-22T02:35:41.205Z,18.68
2018-07-22T02:38:10.107Z,18.66
2018-07-22T02:40:39.024Z,18.60
2018-07-22T02:43:08.034Z,18.57
2018-07-22T02:45:37.045Z,18.55
2018-07-22T02:48:06.007Z,18.54
2018-07-22T02:50:34.910Z,18.52
2018-07-22T02:53:03.868Z,18.52
2018-07-22T02:55:32.777Z,18.47
2018-07-22T02:58:01.693Z,18.47
2018-07-22T03:00:30.686Z,18.46
2018-07-22T03:02:59.620Z,18.40
2018-07-22T03:05:28.549Z,18.36
2018-07-22T03:07:57.444Z,18.38
2018-07-22T03:10:26.345Z,18.35
2018-07-22T03:12:55.268Z,18.38
2018-07-22T03:15:24.263Z,18.33
2018-07-22T03:17:53.172Z,18.24
2018-07-22T03:20:22.118Z,18.13
2018-07-22T03:22:51.032Z,18.16
2018-07-22T03:25:20.024Z,18.11
2018-07-22T03:27:48.900Z,18.13
2018-07-22T03:30:17.808Z,18.12
2018-07-22T03:32:46.989Z,18.11
2018-07-22T03:35:16.337Z,18.12
2018-07-22T03:37:45.537Z,18.16
2018-07-22T03:40:14.600Z,18.18
2018-07-22T03:42:43.535Z,18.25
2018-07-22T03:45:12.452Z,18.33
2018-07-22T03:47:41.432Z,18.37
2018-07-22T03:50:10.348Z,18.44
2018-07-22T03:52:39.279Z,18.47
2018-07-22T03:55:08.277Z,18.52
2018-07-22T03:57:37.286Z,18.58
2018-07-22T04:00:06.382Z,18.66
2018-07-22T04:02:35.306Z,18.76
2018-07-22T04:05:04.247Z,18.78
2018-07-22T04:07:33.165Z,18.89
2018-07-22T04:10:02.242Z,18.95
2018-07-22T04:12:32.161Z,19.00
2018-07-22T04:15:02.767Z,19.04
2018-07-22T04:17:31.731Z,19.17
2018-07-22T04:20:00.656Z,19.25
2018-07-22T04:22:29.603Z,19.32
2018-07-22T04:24:58.506Z,19.34
2018-07-22T04:27:27.436Z,19.43
2018-07-22T04:29:56.416Z,19.54
2018-07-22T04:32:25.360Z,19.63
2018-07-22T04:34:54.332Z,19.64
2018-07-22T04:37:23.666Z,19.76
2018-07-22T04:39:52.588Z,19.84
2018-07-22T04:42:21.502Z,19.80
2018-07-22T04:44:50.543Z,19.88
2018-07-22T04:47:19.539Z,19.97
2018-07-22T04:49:48.498Z,20.06
2018-07-22T04:52:17.396Z,20.14
2018-07-22T04:54:46.322Z,20.19
2018-07-22T04:57:15.245Z,20.24
2018-07-22T04:59:44.372Z,20.34
2018-07-22T05:02:13.276Z,20.44
2018-07-22T05:04:42.355Z,20.44
2018-07-22T05:07:11.420Z,20.49
2018-07-22T05:09:40.347Z,20.42
2018-07-22T05:12:09.260Z,20.39
2018-07-22T05:14:38.273Z,20.42
2018-07-22T05:17:07.208Z,20.38
2018-07-22T05:19:36.216Z,20.32
2018-07-22T05:22:05.152Z,20.34
2018-07-22T05:24:34.232Z,20.45
2018-07-22T05:27:03.209Z,20.46
2018-07-22T05:29:32.139Z,20.60
2018-07-22T05:32:01.184Z,20.69
2018-07-22T05:34:30.120Z,20.65
2018-07-22T05:36:59.048Z,20.82
2018-07-22T05:39:28.061Z,20.92
2018-07-22T05:41:56.988Z,21.00
2018-07-22T05:44:25.907Z,21.07
2018-07-22T05:46:54.845Z,21.14
2018-07-22T05:49:23.761Z,21.17
2018-07-22T05:51:52.683Z,21.25
2018-07-22T05:54:21.756Z,21.39
2018-07-22T05:56:50.664Z,21.48
2018-07-22T05:59:19.589Z,21.56
2018-07-22T06:01:48.503Z,21.85
2018-07-22T06:04:17.508Z,21.97
2018-07-22T06:06:46.432Z,22.14
2018-07-22T06:09:15.344Z,22.46
2018-07-22T06:11:44.328Z,23.01
2018-07-22T06:14:13.228Z,23.21
2018-07-22T06:16:42.204Z,23.41
2018-07-22T06:19:11.088Z,23.57
2018-07-22T06:21:40.016Z,23.79
2018-07-22T06:24:09.056Z,23.94
2018-07-22T06:26:37.994Z,24.28
2018-07-22T06:29:07.261Z,24.04
2018-07-22T06:31:36.200Z,24.15
2018-07-22T06:34:05.132Z,24.36
2018-07-22T06:36:34.058Z,24.10
2018-07-22T06:39:02.993Z,24.44
2018-07-22T06:41:31.935Z,24.73
2018-07-22T06:44:00.848Z,24.91
2018-07-22T06:46:29.839Z,25.30
2018-07-22T06:48:58.775Z,25.25
2018-07-22T06:51:27.722Z,25.85
2018-07-22T06:53:56.682Z,25.89
2018-07-22T06:56:25.697Z,25.65
2018-07-22T06:58:54.983Z,25.54
2018-07-22T07:01:23.915Z,25.73
2018-07-22T07:03:53.101Z,26.07
2018-07-22T07:06:22.142Z,26.39
2018-07-22T07:08:51.172Z,26.98
2018-07-22T07:11:20.147Z,27.30
2018-07-22T07:13:49.110Z,27.11
2018-07-22T07:16:18.188Z,27.60
2018-07-22T07:18:47.134Z,27.54
2018-07-22T07:21:16.064Z,27.79
2018-07-22T07:23:44.984Z,28.86
2018-07-22T07:26:14.095Z,28.42
2018-07-22T07:28:43.107Z,27.99
2018-07-22T07:31:12.235Z,27.88
2018-07-22T07:33:41.216Z,28.54
2018-07-22T07:36:10.169Z,28.74
2018-07-22T07:38:39.069Z,28.55
2018-07-22T07:41:07.987Z,28.54
2018-07-22T07:43:36.974Z,28.68
2018-07-22T07:46:06.592Z,29.27
2018-07-22T07:48:35.550Z,28.68
2018-07-22T07:51:04.620Z,29.03
2018-07-22T07:53:33.644Z,28.98
2018-07-22T07:56:02.679Z,29.15
2018-07-22T07:58:31.616Z,29.67
2018-07-22T08:01:01.214Z,30.18
2018-07-22T08:03:30.469Z,29.94
2018-07-22T08:05:59.437Z,30.12
2018-07-22T08:08:28.412Z,30.56
2018-07-22T08:10:57.400Z,30.67
2018-07-22T08:13:26.331Z,30.73
2018-07-22T08:15:55.850Z,30.64
2018-07-22T08:18:24.792Z,30.09
2018-07-22T08:20:53.848Z,30.30
2018-07-22T08:23:22.784Z,31.09
2018-07-22T08:25:52.188Z,30.68
2018-07-22T08:28:32.491Z,29.91
2018-07-22T08:31:01.518Z,29.86
2018-07-22T08:33:30.424Z,30.14
2018-07-22T08:35:59.362Z,31.20
2018-07-22T08:38:28.318Z,32.06
2018-07-22T08:40:57.347Z,31.82
2018-07-22T08:43:26.256Z,32.04
2018-07-22T08:45:55.227Z,31.96
2018-07-22T08:48:24.147Z,31.99
2018-07-22T08:50:53.168Z,32.06
2018-07-22T08:53:22.099Z,32.36
2018-07-22T08:55:51.112Z,32.63
2018-07-22T08:58:20.134Z,33.04
2018-07-22T09:00:49.138Z,32.63
2018-07-22T09:03:18.101Z,32.56
2018-07-22T09:05:47.048Z,32.52
2018-07-22T09:08:16.015Z,32.95
2018-07-22T09:10:44.876Z,33.24
2018-07-22T09:13:13.828Z,33.64
2018-07-22T09:15:42.830Z,32.81
2018-07-22T09:18:11.762Z,32.70
2018-07-22T09:20:40.743Z,33.19
2018-07-22T09:23:09.658Z,33.38
2018-07-22T09:25:38.627Z,33.27
2018-07-22T09:28:07.559Z,33.91
2018-07-22T09:30:36.469Z,34.44
2018-07-22T09:33:05.535Z,33.74
2018-07-22T09:35:34.547Z,33.60
2018-07-22T09:38:03.517Z,34.08
2018-07-22T09:40:32.454Z,34.62
2018-07-22T09:43:01.356Z,34.27
2018-07-22T09:45:30.357Z,34.43
2018-07-22T09:47:59.293Z,34.39
2018-07-22T09:50:28.219Z,34.01
2018-07-22T09:52:57.151Z,34.33
2018-07-22T09:55:26.094Z,34.12
2018-07-22T09:57:55.026Z,34.52
2018-07-22T10:00:29.349Z,34.79
2018-07-22T10:02:58.324Z,34.90
2018-07-22T10:05:27.301Z,34.98
2018-07-22T10:07:56.236Z,35.00
2018-07-22T10:10:25.253Z,34.89
2018-07-22T10:12:54.235Z,34.09
2018-07-22T10:15:23.340Z,34.34
2018-07-22T10:17:52.355Z,34.57
2018-07-22T10:20:21.357Z,34.26
2018-07-22T10:22:50.295Z,34.64
2018-07-22T10:25:19.196Z,34.58
2018-07-22T10:27:48.125Z,34.81
2018-07-22T10:30:17.121Z,35.15
2018-07-22T10:32:46.021Z,35.48
2018-07-22T10:35:14.931Z,35.46
2018-07-22T10:37:43.844Z,34.84
2018-07-22T10:40:13.477Z,35.09
2018-07-22T10:42:42.385Z,35.04
2018-07-22T10:45:11.468Z,34.86
2018-07-22T10:47:40.733Z,34.69
2018-07-22T10:50:09.960Z,34.97
2018-07-22T10:52:38.863Z,35.21
2018-07-22T10:55:07.853Z,35.65
2018-07-22T10:57:36.792Z,34.62
2018-07-22T11:00:06.748Z,35.41
2018-07-22T11:02:35.859Z,35.24
2018-07-22T11:05:06.075Z,35.55
2018-07-22T11:07:34.962Z,35.43
2018-07-22T11:10:05.479Z,34.96
2018-07-22T11:12:34.476Z,34.60
2018-07-22T11:15:03.443Z,33.86
2018-07-22T11:17:32.412Z,33.77
2018-07-22T11:20:01.459Z,33.58
2018-07-22T11:22:31.357Z,32.94
2018-07-22T11:25:02.013Z,32.46
2018-07-22T11:27:30.968Z,32.16
2018-07-22T11:29:59.889Z,32.47
2018-07-22T11:32:28.852Z,32.69
2018-07-22T11:34:57.824Z,33.07
2018-07-22T11:37:26.850Z,33.70
2018-07-22T11:42:21.821Z,34.54
2018-07-22T11:44:50.741Z,34.81
2018-07-22T11:47:19.652Z,34.91
2018-07-22T11:49:48.569Z,33.97
2018-07-22T11:52:17.484Z,33.76
2018-07-22T11:54:46.430Z,33.92
2018-07-22T11:57:15.480Z,34.03
2018-07-22T11:59:44.419Z,34.61
2018-07-22T12:02:13.346Z,34.16
2018-07-22T12:04:42.251Z,34.44
2018-07-22T12:07:11.217Z,34.19
2018-07-22T12:09:40.139Z,34.02
2018-07-22T12:12:09.060Z,33.67
2018-07-22T12:14:38.081Z,33.98
2018-07-22T12:17:07.007Z,33.88
2018-07-22T12:19:35.948Z,33.41
2018-07-22T12:22:05.012Z,33.28
2018-07-22T12:24:33.929Z,32.84
2018-07-22T12:27:02.867Z,32.68
2018-07-22T12:29:31.816Z,33.00
2018-07-22T12:32:00.751Z,33.10
2018-07-22T12:34:29.724Z,32.83
2018-07-22T12:36:58.669Z,32.72
2018-07-22T12:39:27.630Z,32.55
2018-07-22T12:41:56.559Z,32.87
2018-07-22T12:44:25.531Z,32.86
2018-07-22T12:46:54.468Z,32.83
2018-07-22T12:49:23.376Z,32.05
2018-07-22T12:51:52.380Z,32.12
2018-07-22T12:54:21.312Z,32.58
2018-07-22T12:56:50.303Z,32.67
2018-07-22T12:59:19.240Z,32.99
2018-07-22T13:01:48.327Z,33.16
2018-07-22T13:04:17.324Z,32.89
2018-07-22T13:06:46.468Z,33.61
2018-07-22T13:09:15.404Z,34.03
2018-07-22T13:11:44.335Z,34.66
2018-07-22T13:14:13.298Z,34.92
2018-07-22T13:16:42.199Z,35.19
2018-07-22T13:19:11.116Z,33.99
2018-07-22T13:21:40.045Z,33.60
2018-07-22T13:24:09.036Z,32.77
2018-07-22T13:26:37.965Z,32.35
2018-07-22T13:29:06.923Z,32.15
2018-07-22T13:31:36.043Z,31.96
2018-07-22T13:34:05.308Z,31.95
2018-07-22T13:36:34.245Z,31.49
2018-07-22T13:39:03.202Z,31.22
2018-07-22T13:41:32.113Z,31.47
2018-07-22T13:44:01.109Z,31.52
2018-07-22T13:46:30.040Z,31.23
2018-07-22T13:48:59.013Z,30.88
2018-07-22T13:51:28.189Z,30.90
2018-07-22T13:53:57.076Z,30.91
2018-07-22T13:56:26.067Z,30.57
2018-07-22T13:58:54.972Z,30.76
2018-07-22T14:01:23.894Z,31.04
2018-07-22T14:03:52.776Z,30.70
2018-07-22T14:06:21.713Z,30.55
2018-07-22T14:08:50.595Z,30.48
2018-07-22T14:11:19.623Z,30.52
2018-07-22T14:13:48.565Z,30.50
2018-07-22T14:16:17.649Z,30.71
2018-07-22T14:18:46.579Z,30.74
2018-07-22T14:21:15.636Z,30.51
2018-07-22T14:23:44.682Z,30.53
2018-07-22T14:26:13.616Z,30.80
2018-07-22T14:28:42.585Z,31.02
2018-07-22T14:31:11.661Z,30.88
2018-07-22T14:33:40.580Z,31.15
2018-07-22T14:36:09.554Z,31.02
2018-07-22T14:38:38.444Z,30.85
2018-07-22T14:41:07.517Z,30.69
2018-07-22T14:43:36.289Z,30.80
2018-07-22T14:46:05.220Z,30.71
2018-07-22T14:48:34.159Z,30.37
2018-07-22T14:51:03.135Z,30.61
2018-07-22T14:53:32.129Z,30.61
2018-07-22T14:56:01.035Z,30.40
2018-07-22T14:58:29.966Z,29.96
2018-07-22T15:00:58.992Z,29.93
2018-07-22T15:03:27.901Z,29.50
2018-07-22T15:05:56.831Z,29.40
2018-07-22T15:08:25.832Z,28.88
2018-07-22T15:10:54.930Z,28.89
2018-07-22T15:13:24.081Z,29.02
2018-07-22T15:15:53.003Z,29.15
2018-07-22T15:18:21.942Z,28.89
2018-07-22T15:20:50.868Z,28.66
2018-07-22T15:23:19.824Z,28.86
2018-07-22T15:25:48.719Z,28.86
2018-07-22T15:28:17.655Z,28.80
2018-07-22T15:30:46.708Z,29.01
2018-07-22T15:33:15.634Z,29.18
2018-07-22T15:35:44.554Z,29.46
2018-07-22T15:38:13.660Z,29.59
2018-07-22T15:40:42.690Z,29.46
2018-07-22T15:43:11.695Z,29.38
2018-07-22T15:45:40.614Z,29.24
2018-07-22T15:48:09.514Z,29.43
2018-07-22T15:50:38.596Z,29.31
2018-07-22T15:53:07.717Z,29.27
2018-07-22T15:55:36.957Z,29.07
2018-07-22T15:58:05.692Z,28.73
2018-07-22T16:00:34.827Z,28.67
2018-07-22T16:03:03.824Z,28.71
2018-07-22T16:05:32.768Z,28.50
2018-07-22T16:08:01.789Z,28.23
2018-07-22T16:10:30.742Z,28.14
2018-07-22T16:12:59.673Z,27.85
2018-07-22T16:15:28.726Z,27.80
2018-07-22T16:17:57.746Z,27.81
2018-07-22T16:20:26.673Z,27.68
2018-07-22T16:22:55.620Z,27.77
2018-07-22T16:25:24.589Z,27.86
2018-07-22T16:27:53.600Z,27.85
2018-07-22T16:30:22.563Z,27.68
2018-07-22T16:32:51.548Z,27.53
2018-07-22T16:35:20.629Z,27.54
2018-07-22T16:37:49.584Z,27.35
2018-07-22T16:40:18.631Z,27.38
2018-07-22T16:42:47.532Z,27.36
2018-07-22T16:45:16.444Z,27.24
2018-07-22T16:47:45.363Z,27.26
2018-07-22T16:50:14.367Z,27.09
2018-07-22T16:52:43.257Z,27.01
2018-07-22T16:55:12.198Z,27.06
2018-07-22T16:57:41.112Z,27.13
2018-07-22T17:00:10.313Z,27.01
2018-07-22T17:02:39.315Z,27.09
2018-07-22T17:05:08.375Z,27.04
2018-07-22T17:07:38.160Z,27.00
2018-07-22T17:10:07.092Z,27.00
2018-07-22T17:12:36.033Z,27.01
2018-07-22T17:15:04.961Z,27.06
2018-07-22T17:17:33.854Z,27.06
2018-07-22T17:20:02.967Z,27.20
2018-07-22T17:22:31.917Z,27.07
2018-07-22T17:25:00.833Z,26.89
2018-07-22T17:27:29.740Z,26.83
2018-07-22T17:29:58.730Z,26.90
2018-07-22T17:32:27.758Z,26.72
2018-07-22T17:34:56.672Z,26.73
2018-07-22T17:37:26.043Z,26.67
2018-07-22T17:39:58.724Z,26.55
2018-07-22T17:42:28.957Z,26.48
2018-07-22T17:44:58.437Z,26.48
2018-07-22T17:47:28.252Z,26.49
2018-07-22T17:49:57.717Z,26.50
2018-07-22T17:52:27.152Z,26.42
2018-07-22T17:54:56.068Z,26.49
2018-07-22T17:57:25.004Z,26.32
2018-07-22T17:59:54.114Z,26.26
2018-07-22T18:02:23.023Z,26.15
2018-07-22T18:04:52.414Z,26.09
2018-07-22T18:07:21.617Z,26.11
2018-07-22T18:15:46.629Z,25.87
2018-07-22T18:18:16.132Z,25.89
2018-07-22T18:20:47.071Z,25.71
2018-07-22T18:23:16.045Z,25.68
2018-07-22T18:25:45.546Z,25.67
2018-07-22T18:28:15.204Z,25.61
2018-07-22T18:30:44.764Z,25.43
2018-07-22T18:33:13.659Z,25.41
2018-07-22T18:35:42.624Z,25.35
2018-07-22T18:38:11.599Z,25.37
2018-07-22T18:40:40.568Z,25.26
2018-07-22T18:43:09.521Z,25.23
2018-07-22T18:45:38.547Z,25.12
2018-07-22T18:48:07.473Z,25.11
2018-07-22T18:50:36.452Z,25.08
2018-07-22T18:53:05.460Z,25.08
2018-07-22T18:55:34.480Z,25.01
2018-07-22T18:58:03.562Z,24.88
2018-07-22T19:00:32.471Z,24.86
2018-07-22T19:03:01.529Z,24.84
2018-07-22T19:05:30.457Z,24.79
2018-07-22T19:07:59.403Z,24.75
2018-07-22T19:10:28.324Z,24.67
2018-07-22T19:12:57.562Z,24.65
2018-07-22T19:15:27.638Z,24.64
2018-07-22T19:17:56.540Z,24.55
2018-07-22T19:20:25.487Z,24.46
2018-07-22T19:22:54.439Z,24.35
2018-07-22T19:25:23.357Z,24.26
2018-07-22T19:27:52.294Z,24.20
2018-07-22T19:30:21.232Z,24.15
2018-07-22T19:32:50.178Z,24.11
2018-07-22T19:35:19.094Z,24.02
2018-07-22T19:37:48.047Z,23.99
2018-07-22T19:40:16.992Z,23.94
2018-07-22T19:42:45.883Z,23.89
2018-07-22T19:45:14.851Z,23.81
2018-07-22T19:47:43.813Z,23.76
2018-07-22T19:50:12.747Z,23.71
2018-07-22T19:52:41.651Z,23.64
2018-07-22T19:55:10.597Z,23.61
2018-07-22T19:57:39.604Z,23.58
2018-07-22T20:00:08.569Z,23.50
2018-07-22T20:02:37.510Z,23.45
2018-07-22T20:05:06.434Z,23.38
2018-07-22T20:07:35.346Z,23.33
2018-07-22T20:10:04.750Z,23.23
2018-07-22T20:12:33.657Z,23.10
2018-07-22T20:15:02.570Z,23.08
2018-07-22T20:17:31.481Z,23.15
2018-07-22T20:20:00.393Z,23.13
2018-07-22T20:22:29.401Z,23.13
2018-07-22T20:24:58.348Z,23.09
2018-07-22T20:27:27.267Z,23.02
2018-07-22T20:29:56.161Z,23.00
2018-07-22T20:32:25.050Z,23.00
2018-07-22T20:34:54.038Z,23.05
2018-07-22T20:37:22.977Z,22.96
2018-07-22T20:39:51.894Z,22.90
2018-07-22T20:42:20.808Z,22.87
2018-07-22T20:44:49.727Z,22.87
2018-07-22T20:47:18.760Z,22.85
2018-07-22T20:49:47.807Z,22.80
2018-07-22T20:52:16.752Z,22.73
2018-07-22T20:54:45.697Z,22.71
2018-07-22T20:57:14.616Z,22.59
2018-07-22T20:59:43.511Z,22.57
2018-07-22T21:02:12.451Z,22.50
2018-07-22T21:04:41.354Z,22.48
2018-07-22T21:07:10.604Z,22.48
2018-07-22T21:09:39.529Z,22.51
2018-07-22T21:12:50.187Z,22.57
2018-07-22T21:15:19.248Z,22.57
2018-07-22T21:17:49.099Z,22.56
2018-07-22T21:20:18.857Z,22.56
2018-07-22T21:22:47.758Z,22.55
2018-07-22T21:25:17.262Z,22.54
2018-07-22T21:27:46.285Z,22.44
2018-07-22T21:30:15.740Z,22.39
2018-07-22T21:32:44.613Z,22.40
2018-07-22T21:35:13.531Z,22.34
2018-07-22T21:37:42.443Z,22.31
2018-07-22T21:40:11.337Z,22.27
2018-07-22T21:42:40.239Z,22.22
2018-07-22T21:45:09.393Z,22.21
2018-07-22T21:47:38.348Z,22.12
2018-07-22T21:50:08.063Z,22.14
2018-07-22T21:52:36.965Z,22.14
2018-07-22T21:55:06.185Z,22.11
2018-07-22T21:57:35.280Z,22.08
2018-07-22T22:00:06.590Z,22.12
2018-07-22T22:02:35.583Z,22.12
2018-07-22T22:05:04.930Z,22.09
2018-07-22T22:07:33.808Z,22.14
2018-07-22T22:10:02.812Z,22.15
2018-07-22T22:12:32.384Z,22.10
2018-07-22T22:15:01.268Z,22.11
2018-07-22T22:17:30.164Z,22.10
2018-07-22T22:19:59.038Z,22.05
2018-07-22T22:22:27.932Z,21.94
2018-07-22T22:24:56.952Z,21.92
2018-07-22T22:27:26.866Z,21.89
2018-07-22T22:29:55.813Z,21.89
2018-07-22T22:32:24.975Z,21.83
2018-07-22T22:34:53.876Z,21.77
2018-07-22T22:37:22.779Z,21.73
2018-07-22T22:39:51.696Z,21.72
2018-07-22T22:42:20.614Z,21.66
2018-07-22T22:44:49.527Z,21.65
2018-07-22T22:47:18.420Z,21.65
2018-07-22T22:49:47.324Z,21.66
2018-07-22T22:52:16.225Z,21.60
2018-07-22T22:54:45.170Z,21.59
2018-07-22T22:57:14.024Z,21.60
2018-07-22T22:59:42.915Z,21.54
2018-07-22T23:02:11.838Z,21.55
2018-07-22T23:04:40.751Z,21.57
2018-07-22T23:07:09.680Z,21.51
2018-07-22T23:09:38.596Z,21.47
2018-07-22T23:12:07.491Z,21.44
2018-07-22T23:14:36.399Z,21.43
2018-07-22T23:17:05.324Z,21.34
2018-07-22T23:19:34.249Z,21.18
2018-07-22T23:22:03.136Z,21.18
2018-07-22T23:24:32.025Z,21.01
2018-07-22T23:27:00.952Z,20.96
2018-07-22T23:29:29.856Z,20.91
2018-07-22T23:31:58.764Z,20.88
2018-07-22T23:34:27.652Z,20.91
2018-07-22T23:36:56.583Z,20.87
2018-07-22T23:39:25.465Z,20.85
2018-07-22T23:41:54.379Z,20.87
2018-07-22T23:44:23.290Z,20.82
2018-07-22T23:46:52.208Z,20.79
2018-07-22T23:49:21.103Z,20.76
2018-07-22T23:51:50.017Z,20.77
2018-07-22T23:54:18.910Z,20.76
2018-07-22T23:56:47.805Z,20.70
2018-07-22T23:59:16.715Z,20.69
